sensor_id;sensor_type;location;lat;lon;timestamp;pressure;altitude;pressure_sealevel;temperature;humidity
7660;BME280;3872;47.902;8.162;2023-03-04T00:01:04;92228.81;;;-0.15;100.00
7660;BME280;3872;47.902;8.162;2023-03-04T00:03:30;92225.53;;;-0.52;100.00
7660;BME280;3872;47.902;8.162;2023-03-04T00:05:57;92225.25;;;-0.02;100.00
7660;BME280;3872;47.902;8.162;2023-03-04T00:08:23;92235.69;;;-0.38;100.00
7660;BME280;3872;47.902;8.162;2023-03-04T00:10:50;92227.06;;;0.09;100.00
7660;BME280;3872;47.902;8.162;2023-03-04T00:13:17;92221.56;;;-0.36;100.00
7660;BME280;3872;47.902;8.162;2023-03-04T00:15:47;92232.13;;;-0.37;100.00
7660;BME280;3872;47.902;8.162;2023-03-04T00:18:13;92226.00;;;-0.13;100.00
7660;BME280;3872;47.902;8.162;2023-03-04T00:20:40;92230.75;;;-0.10;100.00
7660;BME280;3872;47.902;8.162;2023-03-04T00:23:07;92226.16;;;-0.38;100.00
7660;BME280;3872;47.902;8.162;2023-03-04T00:25:33;92227.97;;;-0.27;100.00
7660;BME280;3872;47.902;8.162;2023-03-04T00:28:00;92226.16;;;-0.38;100.00
7660;BME280;3872;47.902;8.162;2023-03-04T00:30:26;92225.38;;;-0.38;100.00
7660;BME280;3872;47.902;8.162;2023-03-04T00:32:54;92220.22;;;-0.57;100.00
7660;BME280;3872;47.902;8.162;2023-03-04T00:35:22;92224.28;;;-0.31;100.00
7660;BME280;3872;47.902;8.162;2023-03-04T00:37:49;92229.13;;;-0.23;100.00
7660;BME280;3872;47.902;8.162;2023-03-04T00:40:16;92226.50;;;-0.34;100.00
7660;BME280;3872;47.902;8.162;2023-03-04T00:42:42;92228.53;;;-0.36;100.00
7660;BME280;3872;47.902;8.162;2023-03-04T00:45:09;92230.34;;;-0.25;100.00
7660;BME280;3872;47.902;8.162;2023-03-04T00:47:36;92223.75;;;-0.51;100.00
7660;BME280;3872;47.902;8.162;2023-03-04T00:50:05;92225.88;;;-0.48;100.00
7660;BME280;3872;47.902;8.162;2023-03-04T00:52:32;92228.31;;;-0.53;100.00
7660;BME280;3872;47.902;8.162;2023-03-04T00:54:59;92222.78;;;-0.57;100.00
7660;BME280;3872;47.902;8.162;2023-03-04T00:57:26;92223.66;;;-0.45;100.00
7660;BME280;3872;47.902;8.162;2023-03-04T00:59:52;92230.13;;;-0.54;100.00
7660;BME280;3872;47.902;8.162;2023-03-04T01:02:19;92223.25;;;-0.60;100.00
7660;BME280;3872;47.902;8.162;2023-03-04T01:04:46;92219.81;;;-0.72;100.00
7660;BME280;3872;47.902;8.162;2023-03-04T01:07:13;92214.22;;;-1.05;100.00
7660;BME280;3872;47.902;8.162;2023-03-04T01:09:40;92222.69;;;-0.98;100.00
7660;BME280;3872;47.902;8.162;2023-03-04T01:12:07;92216.22;;;-0.71;100.00
7660;BME280;3872;47.902;8.162;2023-03-04T01:14:33;92212.06;;;-0.90;100.00
7660;BME280;3872;47.902;8.162;2023-03-04T01:17:00;92216.88;;;-0.75;100.00
7660;BME280;3872;47.902;8.162;2023-03-04T01:19:27;92213.16;;;-0.80;100.00
7660;BME280;3872;47.902;8.162;2023-03-04T01:21:53;92215.31;;;-0.95;100.00
7660;BME280;3872;47.902;8.162;2023-03-04T01:24:22;92205.75;;;-0.94;100.00
7660;BME280;3872;47.902;8.162;2023-03-04T01:26:48;92215.16;;;-1.61;100.00
7660;BME280;3872;47.902;8.162;2023-03-04T01:29:16;92210.00;;;-1.18;100.00
7660;BME280;3872;47.902;8.162;2023-03-04T01:31:42;92205.09;;;-1.44;100.00
7660;BME280;3872;47.902;8.162;2023-03-04T01:34:09;92202.88;;;-1.04;100.00
7660;BME280;3872;47.902;8.162;2023-03-04T01:36:36;92195.34;;;-1.06;100.00
7660;BME280;3872;47.902;8.162;2023-03-04T01:39:02;92196.34;;;-1.43;100.00
7660;BME280;3872;47.902;8.162;2023-03-04T01:41:31;92199.88;;;-1.63;100.00
7660;BME280;3872;47.902;8.162;2023-03-04T01:43:59;92202.69;;;-1.64;100.00
7660;BME280;3872;47.902;8.162;2023-03-04T01:46:27;92192.13;;;-1.38;100.00
7660;BME280;3872;47.902;8.162;2023-03-04T01:48:54;92191.13;;;-1.19;100.00
7660;BME280;3872;47.902;8.162;2023-03-04T01:51:20;92191.91;;;-1.36;100.00
7660;BME280;3872;47.902;8.162;2023-03-04T01:53:49;92188.44;;;-1.48;100.00
7660;BME280;3872;47.902;8.162;2023-03-04T01:56:23;92185.03;;;-1.42;100.00
7660;BME280;3872;47.902;8.162;2023-03-04T01:59:09;92180.84;;;-1.62;100.00
7660;BME280;3872;47.902;8.162;2023-03-04T02:01:36;92174.66;;;-1.61;100.00
7660;BME280;3872;47.902;8.162;2023-03-04T02:04:04;92182.66;;;-1.44;100.00
7660;BME280;3872;47.902;8.162;2023-03-04T02:06:32;92179.28;;;-1.44;100.00
7660;BME280;3872;47.902;8.162;2023-03-04T02:08:59;92176.28;;;-1.23;100.00
7660;BME280;3872;47.902;8.162;2023-03-04T02:11:25;92167.97;;;-1.25;100.00
7660;BME280;3872;47.902;8.162;2023-03-04T02:13:57;92170.34;;;-1.24;100.00
7660;BME280;3872;47.902;8.162;2023-03-04T02:16:25;92171.63;;;-1.33;100.00
7660;BME280;3872;47.902;8.162;2023-03-04T02:18:58;92167.69;;;-1.17;100.00
7660;BME280;3872;47.902;8.162;2023-03-04T02:21:27;92172.75;;;-1.10;100.00
7660;BME280;3872;47.902;8.162;2023-03-04T02:24:01;92172.81;;;-1.72;100.00
7660;BME280;3872;47.902;8.162;2023-03-04T02:26:31;92165.56;;;-2.06;100.00
7660;BME280;3872;47.902;8.162;2023-03-04T02:29:00;92163.75;;;-1.63;100.00
7660;BME280;3872;47.902;8.162;2023-03-04T02:31:31;92158.50;;;-1.31;100.00
7660;BME280;3872;47.902;8.162;2023-03-04T02:34:00;92162.59;;;-1.85;100.00
7660;BME280;3872;47.902;8.162;2023-03-04T02:36:28;92159.50;;;-1.50;100.00
7660;BME280;3872;47.902;8.162;2023-03-04T02:39:00;92162.53;;;-1.78;100.00
7660;BME280;3872;47.902;8.162;2023-03-04T02:41:31;92159.06;;;-1.90;100.00
7660;BME280;3872;47.902;8.162;2023-03-04T02:43:58;92169.44;;;-1.97;100.00
7660;BME280;3872;47.902;8.162;2023-03-04T02:46:26;92160.66;;;-2.14;100.00
7660;BME280;3872;47.902;8.162;2023-03-04T02:48:53;92154.31;;;-2.18;100.00
7660;BME280;3872;47.902;8.162;2023-03-04T02:51:20;92151.94;;;-2.20;100.00
7660;BME280;3872;47.902;8.162;2023-03-04T02:53:47;92158.94;;;-2.20;100.00
7660;BME280;3872;47.902;8.162;2023-03-04T02:56:13;92157.50;;;-2.48;100.00
7660;BME280;3872;47.902;8.162;2023-03-04T02:58:41;92159.38;;;-2.30;100.00
7660;BME280;3872;47.902;8.162;2023-03-04T03:01:09;92156.00;;;-2.30;100.00
7660;BME280;3872;47.902;8.162;2023-03-04T03:03:36;92155.47;;;-2.39;100.00
7660;BME280;3872;47.902;8.162;2023-03-04T03:06:03;92153.06;;;-2.34;100.00
7660;BME280;3872;47.902;8.162;2023-03-04T03:08:30;92150.75;;;-2.42;100.00
7660;BME280;3872;47.902;8.162;2023-03-04T03:10:59;92151.53;;;-2.42;100.00
7660;BME280;3872;47.902;8.162;2023-03-04T03:13:26;92139.03;;;-2.13;100.00
7660;BME280;3872;47.902;8.162;2023-03-04T03:15:54;92148.50;;;-2.07;100.00
7660;BME280;3872;47.902;8.162;2023-03-04T03:18:23;92148.50;;;-2.07;100.00
7660;BME280;3872;47.902;8.162;2023-03-04T03:20:49;92153.22;;;-2.29;100.00
7660;BME280;3872;47.902;8.162;2023-03-04T03:23:16;92140.84;;;-2.45;100.00
7660;BME280;3872;47.902;8.162;2023-03-04T03:25:45;92149.16;;;-2.43;100.00
7660;BME280;3872;47.902;8.162;2023-03-04T03:28:11;92147.88;;;-2.59;100.00
7660;BME280;3872;47.902;8.162;2023-03-04T03:30:38;92152.91;;;-2.70;100.00
7660;BME280;3872;47.902;8.162;2023-03-04T03:33:06;92146.69;;;-2.56;100.00
7660;BME280;3872;47.902;8.162;2023-03-04T03:35:33;92149.97;;;-2.43;100.00
7660;BME280;3872;47.902;8.162;2023-03-04T03:37:59;92152.94;;;-2.46;100.00
7660;BME280;3872;47.902;8.162;2023-03-04T03:40:26;92152.19;;;-2.53;100.00
7660;BME280;3872;47.902;8.162;2023-03-04T03:42:53;92153.88;;;-2.40;100.00
7660;BME280;3872;47.902;8.162;2023-03-04T03:45:19;92152.66;;;-2.31;100.00
7660;BME280;3872;47.902;8.162;2023-03-04T03:47:46;92151.31;;;-2.40;100.00
7660;BME280;3872;47.902;8.162;2023-03-04T03:50:14;92148.00;;;-2.47;100.00
7660;BME280;3872;47.902;8.162;2023-03-04T03:52:41;92140.66;;;-2.44;100.00
7660;BME280;3872;47.902;8.162;2023-03-04T03:55:08;92143.59;;;-2.71;100.00
7660;BME280;3872;47.902;8.162;2023-03-04T03:57:35;92150.66;;;-2.92;100.00
7660;BME280;3872;47.902;8.162;2023-03-04T04:00:01;92147.53;;;-2.69;100.00
7660;BME280;3872;47.902;8.162;2023-03-04T04:02:37;92150.50;;;-2.65;100.00
7660;BME280;3872;47.902;8.162;2023-03-04T04:05:05;92150.06;;;-2.62;100.00
7660;BME280;3872;47.902;8.162;2023-03-04T04:07:33;92160.06;;;-2.72;100.00
7660;BME280;3872;47.902;8.162;2023-03-04T04:10:00;92151.22;;;-2.90;100.00
7660;BME280;3872;47.902;8.162;2023-03-04T04:12:27;92152.31;;;-3.10;100.00
7660;BME280;3872;47.902;8.162;2023-03-04T04:14:53;92154.09;;;-3.11;100.00
7660;BME280;3872;47.902;8.162;2023-03-04T04:17:20;92148.84;;;-2.91;100.00
7660;BME280;3872;47.902;8.162;2023-03-04T04:19:46;92150.09;;;-3.00;100.00
7660;BME280;3872;47.902;8.162;2023-03-04T04:22:15;92144.97;;;-3.07;100.00
7660;BME280;3872;47.902;8.162;2023-03-04T04:24:43;92156.28;;;-2.77;100.00
7660;BME280;3872;47.902;8.162;2023-03-04T04:27:10;92152.47;;;-2.99;100.00
7660;BME280;3872;47.902;8.162;2023-03-04T04:29:38;92145.91;;;-2.95;100.00
7660;BME280;3872;47.902;8.162;2023-03-04T04:32:05;92144.78;;;-3.12;100.00
7660;BME280;3872;47.902;8.162;2023-03-04T04:34:32;92142.66;;;-3.22;100.00
7660;BME280;3872;47.902;8.162;2023-03-04T04:36:59;92152.06;;;-3.02;100.00
7660;BME280;3872;47.902;8.162;2023-03-04T04:39:27;92153.66;;;-3.01;100.00
7660;BME280;3872;47.902;8.162;2023-03-04T04:41:55;92154.44;;;-3.01;100.00
7660;BME280;3872;47.902;8.162;2023-03-04T04:44:22;92143.53;;;-2.96;100.00
7660;BME280;3872;47.902;8.162;2023-03-04T04:46:48;92148.81;;;-3.23;100.00
7660;BME280;3872;47.902;8.162;2023-03-04T04:49:15;92149.75;;;-3.17;100.00
7660;BME280;3872;47.902;8.162;2023-03-04T04:51:41;92154.94;;;-3.24;100.00
7660;BME280;3872;47.902;8.162;2023-03-04T04:54:09;92155.56;;;-3.28;100.00
7660;BME280;3872;47.902;8.162;2023-03-04T04:56:36;92156.53;;;-3.29;100.00
7660;BME280;3872;47.902;8.162;2023-03-04T04:59:06;92156.16;;;-3.39;100.00
7660;BME280;3872;47.902;8.162;2023-03-04T05:01:33;92155.16;;;-3.32;100.00
7660;BME280;3872;47.902;8.162;2023-03-04T05:04:00;92155.72;;;-3.23;100.00
7660;BME280;3872;47.902;8.162;2023-03-04T05:06:27;92156.09;;;-3.20;100.00
7660;BME280;3872;47.902;8.162;2023-03-04T05:08:53;92163.91;;;-3.46;100.00
7660;BME280;3872;47.902;8.162;2023-03-04T05:11:20;92159.38;;;-3.50;100.00
7660;BME280;3872;47.902;8.162;2023-03-04T05:13:47;92156.94;;;-3.32;100.00
7660;BME280;3872;47.902;8.162;2023-03-04T05:16:16;92158.69;;;-3.26;100.00
7660;BME280;3872;47.902;8.162;2023-03-04T05:18:45;92152.09;;;-3.09;100.00
7660;BME280;3872;47.902;8.162;2023-03-04T05:21:11;92156.84;;;-3.12;100.00
7660;BME280;3872;47.902;8.162;2023-03-04T05:23:40;92157.47;;;-3.17;100.00
7660;BME280;3872;47.902;8.162;2023-03-04T05:26:10;92155.75;;;-3.30;100.00
7660;BME280;3872;47.902;8.162;2023-03-04T05:28:38;92158.91;;;-3.21;100.00
7660;BME280;3872;47.902;8.162;2023-03-04T05:31:05;92148.53;;;-3.08;100.00
7660;BME280;3872;47.902;8.162;2023-03-04T05:33:33;92149.97;;;-3.19;100.00
7660;BME280;3872;47.902;8.162;2023-03-04T05:36:00;92153.94;;;-3.23;100.00
7660;BME280;3872;47.902;8.162;2023-03-04T05:38:27;92150.72;;;-3.11;100.00
7660;BME280;3872;47.902;8.162;2023-03-04T05:40:58;92155.91;;;-3.18;100.00
7660;BME280;3872;47.902;8.162;2023-03-04T05:43:25;92156.00;;;-3.44;100.00
7660;BME280;3872;47.902;8.162;2023-03-04T05:45:52;92160.53;;;-3.46;100.00
7660;BME280;3872;47.902;8.162;2023-03-04T05:48:18;92156.38;;;-3.47;100.00
7660;BME280;3872;47.902;8.162;2023-03-04T05:50:46;92160.03;;;-3.75;100.00
7660;BME280;3872;47.902;8.162;2023-03-04T05:53:18;92163.22;;;-3.79;100.00
7660;BME280;3872;47.902;8.162;2023-03-04T05:55:45;92174.09;;;-4.04;100.00
7660;BME280;3872;47.902;8.162;2023-03-04T05:58:12;92171.72;;;-3.79;100.00
7660;BME280;3872;47.902;8.162;2023-03-04T06:00:40;92168.72;;;-3.69;100.00
7660;BME280;3872;47.902;8.162;2023-03-04T06:03:12;92169.91;;;-3.65;100.00
7660;BME280;3872;47.902;8.162;2023-03-04T06:05:39;92166.38;;;-3.90;100.00
7660;BME280;3872;47.902;8.162;2023-03-04T06:08:07;92169.31;;;-3.74;100.00
7660;BME280;3872;47.902;8.162;2023-03-04T06:10:34;92166.56;;;-3.79;100.00
7660;BME280;3872;47.902;8.162;2023-03-04T06:13:00;92170.34;;;-3.88;100.00
7660;BME280;3872;47.902;8.162;2023-03-04T06:15:27;92177.84;;;-3.86;100.00
7660;BME280;3872;47.902;8.162;2023-03-04T06:17:54;92173.06;;;-3.57;100.00
7660;BME280;3872;47.902;8.162;2023-03-04T06:20:20;92174.22;;;-3.52;100.00
7660;BME280;3872;47.902;8.162;2023-03-04T06:22:47;92177.81;;;-3.73;100.00
7660;BME280;3872;47.902;8.162;2023-03-04T06:25:15;92184.75;;;-3.80;100.00
7660;BME280;3872;47.902;8.162;2023-03-04T06:27:43;92174.50;;;-3.87;100.00
7660;BME280;3872;47.902;8.162;2023-03-04T06:30:11;92177.44;;;-3.77;100.00
7660;BME280;3872;47.902;8.162;2023-03-04T06:32:37;92182.59;;;-3.70;100.00
7660;BME280;3872;47.902;8.162;2023-03-04T06:35:05;92180.94;;;-3.51;100.00
7660;BME280;3872;47.902;8.162;2023-03-04T06:37:32;92184.75;;;-3.67;100.00
7660;BME280;3872;47.902;8.162;2023-03-04T06:39:58;92185.13;;;-3.64;100.00
7660;BME280;3872;47.902;8.162;2023-03-04T06:42:26;92180.78;;;-3.63;100.00
7660;BME280;3872;47.902;8.162;2023-03-04T06:44:53;92183.16;;;-3.75;100.00
7660;BME280;3872;47.902;8.162;2023-03-04T06:47:19;92194.25;;;-3.74;100.00
7660;BME280;3872;47.902;8.162;2023-03-04T06:49:46;92195.59;;;-3.59;100.00
7660;BME280;3872;47.902;8.162;2023-03-04T06:52:13;92193.63;;;-3.50;100.00
7660;BME280;3872;47.902;8.162;2023-03-04T06:54:40;92187.22;;;-3.21;100.00
7660;BME280;3872;47.902;8.162;2023-03-04T06:57:07;92189.31;;;-3.11;100.00
7660;BME280;3872;47.902;8.162;2023-03-04T06:59:36;92187.34;;;-3.09;100.00
7660;BME280;3872;47.902;8.162;2023-03-04T07:02:02;92191.00;;;-3.30;100.00
7660;BME280;3872;47.902;8.162;2023-03-04T07:04:29;92195.41;;;-2.93;100.00
7660;BME280;3872;47.902;8.162;2023-03-04T07:06:56;92198.84;;;-2.67;100.00
7660;BME280;3872;47.902;8.162;2023-03-04T07:09:22;92203.50;;;-2.89;100.00
7660;BME280;3872;47.902;8.162;2023-03-04T07:11:49;92200.72;;;-2.88;100.00
7660;BME280;3872;47.902;8.162;2023-03-04T07:14:15;92199.63;;;-2.67;100.00
7660;BME280;3872;47.902;8.162;2023-03-04T07:16:43;92201.66;;;-2.76;100.00
7660;BME280;3872;47.902;8.162;2023-03-04T07:19:10;92202.91;;;-2.85;100.00
7660;BME280;3872;47.902;8.162;2023-03-04T07:21:36;92203.41;;;-2.69;100.00
7660;BME280;3872;47.902;8.162;2023-03-04T07:24:04;92201.34;;;-2.54;100.00
7660;BME280;3872;47.902;8.162;2023-03-04T07:26:30;92199.75;;;-2.49;100.00
7660;BME280;3872;47.902;8.162;2023-03-04T07:28:57;92201.06;;;-2.40;100.00
7660;BME280;3872;47.902;8.162;2023-03-04T07:31:26;92201.16;;;-2.21;100.00
7660;BME280;3872;47.902;8.162;2023-03-04T07:33:57;92198.75;;;-1.91;100.00
7660;BME280;3872;47.902;8.162;2023-03-04T07:36:24;92198.88;;;-1.80;100.00
7660;BME280;3872;47.902;8.162;2023-03-04T07:38:51;92206.50;;;-1.48;100.00
7660;BME280;3872;47.902;8.162;2023-03-04T07:41:19;92196.00;;;-1.29;100.00
7660;BME280;3872;47.902;8.162;2023-03-04T07:43:46;92194.78;;;-1.26;100.00
7660;BME280;3872;47.902;8.162;2023-03-04T07:46:14;92192.66;;;-0.93;100.00
7660;BME280;3872;47.902;8.162;2023-03-04T07:48:41;92195.31;;;-0.69;100.00
7660;BME280;3872;47.902;8.162;2023-03-04T07:51:13;92199.31;;;-0.55;100.00
7660;BME280;3872;47.902;8.162;2023-03-04T07:53:41;92197.25;;;-0.35;100.00
7660;BME280;3872;47.902;8.162;2023-03-04T07:56:11;92205.31;;;-0.13;100.00
7660;BME280;3872;47.902;8.162;2023-03-04T07:58:38;92201.56;;;-0.29;100.00
7660;BME280;3872;47.902;8.162;2023-03-04T08:01:09;92205.00;;;-0.05;100.00
7660;BME280;3872;47.902;8.162;2023-03-04T08:03:37;92200.38;;;-0.15;100.00
7660;BME280;3872;47.902;8.162;2023-03-04T08:06:06;92200.66;;;0.07;100.00
7660;BME280;3872;47.902;8.162;2023-03-04T08:08:34;92191.53;;;0.16;100.00
7660;BME280;3872;47.902;8.162;2023-03-04T08:11:03;92193.47;;;0.32;100.00
7660;BME280;3872;47.902;8.162;2023-03-04T08:13:30;92194.84;;;0.47;100.00
7660;BME280;3872;47.902;8.162;2023-03-04T08:15:56;92199.34;;;0.63;100.00
7660;BME280;3872;47.902;8.162;2023-03-04T08:18:23;92184.34;;;0.88;100.00
7660;BME280;3872;47.902;8.162;2023-03-04T08:20:50;92188.28;;;1.02;100.00
7660;BME280;3872;47.902;8.162;2023-03-04T08:23:16;92185.84;;;1.24;100.00
7660;BME280;3872;47.902;8.162;2023-03-04T08:25:45;92187.44;;;1.25;100.00
7660;BME280;3872;47.902;8.162;2023-03-04T08:28:13;92187.38;;;1.48;100.00
7660;BME280;3872;47.902;8.162;2023-03-04T08:30:40;92182.78;;;1.67;100.00
7660;BME280;3872;47.902;8.162;2023-03-04T08:33:08;92181.19;;;1.94;100.00
7660;BME280;3872;47.902;8.162;2023-03-04T08:35:36;92179.72;;;2.32;100.00
7660;BME280;3872;47.902;8.162;2023-03-04T08:38:04;92172.31;;;2.57;100.00
7660;BME280;3872;47.902;8.162;2023-03-04T08:40:31;92177.66;;;2.51;100.00
7660;BME280;3872;47.902;8.162;2023-03-04T08:42:59;92167.25;;;3.06;100.00
7660;BME280;3872;47.902;8.162;2023-03-04T08:45:26;92172.94;;;2.64;100.00
7660;BME280;3872;47.902;8.162;2023-03-04T08:47:53;92169.84;;;3.06;100.00
7660;BME280;3872;47.902;8.162;2023-03-04T08:50:19;92172.88;;;3.41;100.00
7660;BME280;3872;47.902;8.162;2023-03-04T08:52:46;92178.25;;;3.78;100.00
7660;BME280;3872;47.902;8.162;2023-03-04T08:55:12;92174.97;;;4.15;100.00
7660;BME280;3872;47.902;8.162;2023-03-04T08:57:39;92173.50;;;3.97;100.00
7660;BME280;3872;47.902;8.162;2023-03-04T09:00:08;92177.34;;;4.21;100.00
7660;BME280;3872;47.902;8.162;2023-03-04T09:02:35;92176.16;;;4.34;100.00
7660;BME280;3872;47.902;8.162;2023-03-04T09:05:02;92174.66;;;4.75;100.00
7660;BME280;3872;47.902;8.162;2023-03-04T09:07:28;92168.81;;;5.05;100.00
7660;BME280;3872;47.902;8.162;2023-03-04T09:09:57;92167.00;;;5.53;100.00
7660;BME280;3872;47.902;8.162;2023-03-04T09:12:23;92166.81;;;5.84;100.00
7660;BME280;3872;47.902;8.162;2023-03-04T09:14:50;92168.63;;;5.84;100.00
7660;BME280;3872;47.902;8.162;2023-03-04T09:17:18;92171.06;;;5.96;100.00
7660;BME280;3872;47.902;8.162;2023-03-04T09:19:44;92160.38;;;6.02;100.00
7660;BME280;3872;47.902;8.162;2023-03-04T09:22:11;92163.25;;;6.21;100.00
7660;BME280;3872;47.902;8.162;2023-03-04T09:24:38;92157.25;;;6.91;100.00
7660;BME280;3872;47.902;8.162;2023-03-04T09:27:04;92154.28;;;7.38;100.00
7660;BME280;3872;47.902;8.162;2023-03-04T09:29:31;92161.84;;;7.40;100.00
7660;BME280;3872;47.902;8.162;2023-03-04T09:31:57;92158.03;;;7.76;100.00
7660;BME280;3872;47.902;8.162;2023-03-04T09:34:25;92158.75;;;7.92;100.00
7660;BME280;3872;47.902;8.162;2023-03-04T09:36:52;92160.78;;;8.05;100.00
7660;BME280;3872;47.902;8.162;2023-03-04T09:39:18;92154.34;;;8.26;100.00
7660;BME280;3872;47.902;8.162;2023-03-04T09:41:47;92159.53;;;8.76;96.22
7660;BME280;3872;47.902;8.162;2023-03-04T09:44:19;92151.31;;;9.16;93.78
7660;BME280;3872;47.902;8.162;2023-03-04T09:46:48;92153.38;;;9.43;80.94
7660;BME280;3872;47.902;8.162;2023-03-04T09:49:17;92147.06;;;9.44;76.74
7660;BME280;3872;47.902;8.162;2023-03-04T09:51:54;92145.97;;;9.45;78.10
7660;BME280;3872;47.902;8.162;2023-03-04T09:54:31;92145.00;;;9.41;74.88
7660;BME280;3872;47.902;8.162;2023-03-04T09:57:15;92150.88;;;8.41;77.55
7660;BME280;3872;47.902;8.162;2023-03-04T09:59:52;92148.53;;;9.02;74.92
7660;BME280;3872;47.902;8.162;2023-03-04T10:02:26;92142.41;;;9.12;71.55
7660;BME280;3872;47.902;8.162;2023-03-04T10:04:58;92145.88;;;8.45;78.83
7660;BME280;3872;47.902;8.162;2023-03-04T10:07:30;92152.03;;;6.81;91.09
7660;BME280;3872;47.902;8.162;2023-03-04T10:10:02;92137.25;;;9.02;74.89
7660;BME280;3872;47.902;8.162;2023-03-04T10:12:32;92140.44;;;7.82;81.69
7660;BME280;3872;47.902;8.162;2023-03-04T10:15:02;92141.53;;;8.64;77.00
7660;BME280;3872;47.902;8.162;2023-03-04T10:17:33;92141.59;;;8.54;75.04
7660;BME280;3872;47.902;8.162;2023-03-04T10:20:04;92143.34;;;8.24;76.35
7660;BME280;3872;47.902;8.162;2023-03-04T10:22:35;92145.69;;;7.87;82.10
7660;BME280;3872;47.902;8.162;2023-03-04T10:25:15;92139.84;;;8.44;77.47
7660;BME280;3872;47.902;8.162;2023-03-04T10:27:43;92143.22;;;7.52;83.93
7660;BME280;3872;47.902;8.162;2023-03-04T10:30:20;92149.09;;;7.82;80.64
7660;BME280;3872;47.902;8.162;2023-03-04T10:32:49;92146.00;;;7.70;80.69
7660;BME280;3872;47.902;8.162;2023-03-04T10:35:25;92136.78;;;8.66;77.82
7660;BME280;3872;47.902;8.162;2023-03-04T10:38:01;92138.47;;;8.86;74.00
7660;BME280;3872;47.902;8.162;2023-03-04T10:40:28;92129.22;;;8.20;76.19
7660;BME280;3872;47.902;8.162;2023-03-04T10:43:02;92126.66;;;9.36;68.90
7660;BME280;3872;47.902;8.162;2023-03-04T10:45:37;92134.44;;;8.25;73.28
7660;BME280;3872;47.902;8.162;2023-03-04T10:48:04;92136.59;;;8.13;77.02
7660;BME280;3872;47.902;8.162;2023-03-04T10:50:31;92126.69;;;9.31;68.29
7660;BME280;3872;47.902;8.162;2023-03-04T10:52:59;92131.25;;;8.34;75.64
7660;BME280;3872;47.902;8.162;2023-03-04T10:55:27;92124.28;;;9.11;70.64
7660;BME280;3872;47.902;8.162;2023-03-04T10:57:55;92132.38;;;8.17;78.61
7660;BME280;3872;47.902;8.162;2023-03-04T11:00:29;92131.38;;;8.81;70.99
7660;BME280;3872;47.902;8.162;2023-03-04T11:03:21;92127.06;;;8.38;77.28
7660;BME280;3872;47.902;8.162;2023-03-04T11:05:48;92131.03;;;8.64;74.53
7660;BME280;3872;47.902;8.162;2023-03-04T11:08:19;92132.81;;;7.91;75.48
7660;BME280;3872;47.902;8.162;2023-03-04T11:10:46;92125.66;;;9.08;67.30
7660;BME280;3872;47.902;8.162;2023-03-04T11:13:16;92133.66;;;8.64;69.58
7660;BME280;3872;47.902;8.162;2023-03-04T11:15:49;92123.75;;;8.85;67.93
7660;BME280;3872;47.902;8.162;2023-03-04T11:18:19;92133.09;;;8.96;67.66
7660;BME280;3872;47.902;8.162;2023-03-04T11:20:48;92123.41;;;8.29;71.66
7660;BME280;3872;47.902;8.162;2023-03-04T11:23:22;92111.97;;;9.35;65.71
7660;BME280;3872;47.902;8.162;2023-03-04T11:25:56;92115.31;;;9.64;66.14
7660;BME280;3872;47.902;8.162;2023-03-04T11:28:31;92121.81;;;10.09;62.65
7660;BME280;3872;47.902;8.162;2023-03-04T11:31:03;92123.56;;;9.05;65.81
7660;BME280;3872;47.902;8.162;2023-03-04T11:33:35;92116.38;;;8.24;74.78
7660;BME280;3872;47.902;8.162;2023-03-04T11:36:19;92113.50;;;8.59;70.42
7660;BME280;3872;47.902;8.162;2023-03-04T11:38:50;92109.09;;;9.31;66.14
7660;BME280;3872;47.902;8.162;2023-03-04T11:41:21;92109.06;;;9.13;69.26
7660;BME280;3872;47.902;8.162;2023-03-04T11:43:50;92112.56;;;8.74;70.56
7660;BME280;3872;47.902;8.162;2023-03-04T11:46:44;92119.09;;;8.04;75.92
7660;BME280;3872;47.902;8.162;2023-03-04T11:52:27;92104.47;;;7.98;76.45
7660;BME280;3872;47.902;8.162;2023-03-04T11:55:10;92097.16;;;7.95;76.61
7660;BME280;3872;47.902;8.162;2023-03-04T11:57:47;92107.41;;;8.64;72.57
7660;BME280;3872;47.902;8.162;2023-03-04T12:00:28;92091.94;;;9.63;65.72
7660;BME280;3872;47.902;8.162;2023-03-04T12:03:14;92088.97;;;10.07;63.28
7660;BME280;3872;47.902;8.162;2023-03-04T12:05:56;92087.47;;;9.39;65.85
7660;BME280;3872;47.902;8.162;2023-03-04T12:08:32;92096.31;;;9.01;66.59
7660;BME280;3872;47.902;8.162;2023-03-04T12:11:11;92081.53;;;9.53;63.61
7660;BME280;3872;47.902;8.162;2023-03-04T12:13:53;92085.81;;;9.25;65.84
7660;BME280;3872;47.902;8.162;2023-03-04T12:16:35;92081.50;;;9.34;66.68
7660;BME280;3872;47.902;8.162;2023-03-04T12:19:18;92071.97;;;9.62;58.21
7660;BME280;3872;47.902;8.162;2023-03-04T12:22:11;92073.53;;;9.44;59.34
7660;BME280;3872;47.902;8.162;2023-03-04T12:25:08;92072.22;;;9.41;60.65
7660;BME280;3872;47.902;8.162;2023-03-04T12:27:48;92063.75;;;10.06;56.99
7660;BME280;3872;47.902;8.162;2023-03-04T12:30:36;92059.34;;;10.39;55.00
7660;BME280;3872;47.902;8.162;2023-03-04T12:33:11;92063.97;;;9.29;57.31
7660;BME280;3872;47.902;8.162;2023-03-04T12:35:44;92058.19;;;10.45;50.51
7660;BME280;3872;47.902;8.162;2023-03-04T12:38:21;92044.09;;;9.85;53.43
7660;BME280;3872;47.902;8.162;2023-03-04T12:40:57;92053.94;;;10.11;49.66
7660;BME280;3872;47.902;8.162;2023-03-04T12:43:40;92045.91;;;10.73;49.81
7660;BME280;3872;47.902;8.162;2023-03-04T12:46:29;92048.97;;;10.29;52.93
7660;BME280;3872;47.902;8.162;2023-03-04T12:49:34;92041.53;;;11.09;50.72
7660;BME280;3872;47.902;8.162;2023-03-04T12:52:13;92043.53;;;10.71;52.03
7660;BME280;3872;47.902;8.162;2023-03-04T12:54:44;92036.38;;;11.18;49.75
7660;BME280;3872;47.902;8.162;2023-03-04T12:57:12;92043.63;;;10.34;51.14
7660;BME280;3872;47.902;8.162;2023-03-04T12:59:46;92039.28;;;10.89;50.45
7660;BME280;3872;47.902;8.162;2023-03-04T13:02:29;92040.94;;;11.12;50.23
7660;BME280;3872;47.902;8.162;2023-03-04T13:05:01;92036.84;;;11.06;49.40
7660;BME280;3872;47.902;8.162;2023-03-04T13:07:38;92026.31;;;10.92;51.33
7660;BME280;3872;47.902;8.162;2023-03-04T13:10:10;92031.97;;;11.13;50.39
7660;BME280;3872;47.902;8.162;2023-03-04T13:12:48;92030.41;;;11.12;50.95
7660;BME280;3872;47.902;8.162;2023-03-04T13:15:35;92026.22;;;10.97;49.48
7660;BME280;3872;47.902;8.162;2023-03-04T13:20:45;92027.78;;;10.85;51.28
7660;BME280;3872;47.902;8.162;2023-03-04T13:23:26;92021.56;;;11.22;49.25
7660;BME280;3872;47.902;8.162;2023-03-04T13:29:30;92014.72;;;11.07;49.19
7660;BME280;3872;47.902;8.162;2023-03-04T13:32:00;92019.97;;;10.80;47.88
7660;BME280;3872;47.902;8.162;2023-03-04T13:34:54;92008.59;;;12.11;46.50
7660;BME280;3872;47.902;8.162;2023-03-04T13:37:32;92014.78;;;11.57;47.67
7660;BME280;3872;47.902;8.162;2023-03-04T13:43:24;92008.44;;;12.07;46.67